createdAt,value
2023-12-12T00:02:22.750Z,74.40
2023-12-12T00:04:50.513Z,74.60
2023-12-12T00:07:18.228Z,74.60
2023-12-12T00:09:45.554Z,74.80
2023-12-12T00:12:13.196Z,74.80
2023-12-12T00:14:40.627Z,74.80
2023-12-12T00:17:08.400Z,74.90
2023-12-12T00:19:35.767Z,74.90
2023-12-12T00:22:03.432Z,75.00
2023-12-12T00:24:30.732Z,75.30
2023-12-12T00:26:57.965Z,75.50
2023-12-12T00:29:25.358Z,75.40
2023-12-12T00:31:53.156Z,75.50
2023-12-12T00:34:20.617Z,75.60
2023-12-12T00:36:48.284Z,75.70
2023-12-12T00:39:15.637Z,75.60
2023-12-12T00:41:43.201Z,75.60
2023-12-12T00:44:11.172Z,75.50
2023-12-12T00:46:38.777Z,75.40
2023-12-12T00:49:06.504Z,75.30
2023-12-12T00:51:34.121Z,75.30
2023-12-12T00:54:03.080Z,75.20
2023-12-12T00:56:31.890Z,75.20
2023-12-12T00:58:59.411Z,75.10
2023-12-12T01:01:27.008Z,75.20
2023-12-12T01:03:54.595Z,75.10
2023-12-12T01:06:29.174Z,75.30
2023-12-12T01:08:57.556Z,75.50
2023-12-12T01:11:25.003Z,75.50
2023-12-12T01:13:52.787Z,75.60
2023-12-12T01:16:20.768Z,75.70
2023-12-12T01:18:48.339Z,75.70
2023-12-12T01:21:15.852Z,75.60
2023-12-12T01:23:52.565Z,75.70
2023-12-12T01:26:21.577Z,75.70
2023-12-12T01:28:49.866Z,75.60
2023-12-12T01:31:18.299Z,75.60
2023-12-12T01:33:46.517Z,75.50
2023-12-12T01:36:14.054Z,75.50
2023-12-12T01:38:41.499Z,75.50
2023-12-12T01:41:09.018Z,75.50
2023-12-12T01:43:36.527Z,75.50
2023-12-12T01:46:07.013Z,75.40
2023-12-12T01:48:35.433Z,75.40
2023-12-12T01:51:05.244Z,75.30
2023-12-12T01:53:38.157Z,75.30
2023-12-12T01:56:07.425Z,75.30
2023-12-12T01:58:37.015Z,75.20
2023-12-12T02:01:05.067Z,75.30
2023-12-12T02:03:36.841Z,75.40
2023-12-12T02:06:06.382Z,75.60
2023-12-12T02:08:34.043Z,75.50
2023-12-12T02:11:02.369Z,75.50
2023-12-12T02:13:29.815Z,75.40
2023-12-12T02:15:57.406Z,75.30
2023-12-12T02:18:24.921Z,75.20
2023-12-12T02:20:52.268Z,75.10
2023-12-12T02:23:19.521Z,75.10
2023-12-12T02:25:46.982Z,75.10
2023-12-12T02:28:15.177Z,75.10
2023-12-12T02:30:43.875Z,76.00
2023-12-12T02:33:11.914Z,75.50
2023-12-12T02:35:39.693Z,75.60
2023-12-12T02:38:06.974Z,75.70
2023-12-12T02:40:34.419Z,75.80
2023-12-12T02:43:02.050Z,76.00
2023-12-12T02:45:29.692Z,76.40
2023-12-12T02:47:57.535Z,76.50
2023-12-12T02:50:25.889Z,76.70
2023-12-12T02:52:53.762Z,77.10
2023-12-12T02:55:21.524Z,77.20
2023-12-12T02:57:48.823Z,77.10
2023-12-12T03:00:17.259Z,77.00
2023-12-12T03:02:44.971Z,76.80
2023-12-12T03:05:12.549Z,76.80
2023-12-12T03:07:40.380Z,76.70
2023-12-12T03:10:08.444Z,76.50
2023-12-12T03:12:35.996Z,76.20
2023-12-12T03:15:03.499Z,76.00
2023-12-12T03:17:30.917Z,76.00
2023-12-12T03:19:58.591Z,76.30
2023-12-12T03:22:26.256Z,76.60
2023-12-12T03:24:54.033Z,76.80
2023-12-12T03:27:21.782Z,77.00
2023-12-12T03:29:49.077Z,77.30
2023-12-12T03:32:16.696Z,77.40
2023-12-12T03:34:44.331Z,77.50
2023-12-12T03:37:11.805Z,77.60
2023-12-12T03:39:42.210Z,77.70
2023-12-12T03:42:10.453Z,77.90
2023-12-12T03:44:38.204Z,77.90
2023-12-12T03:47:05.809Z,77.90
2023-12-12T03:49:33.656Z,77.80
2023-12-12T03:52:01.584Z,77.80
2023-12-12T03:54:33.099Z,77.70
2023-12-12T03:57:00.566Z,77.60
2023-12-12T03:59:27.959Z,77.50
2023-12-12T04:01:55.479Z,77.30
2023-12-12T04:04:23.196Z,77.30
2023-12-12T04:06:51.034Z,77.10
2023-12-12T04:09:18.923Z,77.00
2023-12-12T04:11:46.509Z,77.00
2023-12-12T04:14:13.952Z,77.80
2023-12-12T04:16:41.303Z,77.00
2023-12-12T04:19:09.019Z,77.00
2023-12-12T04:21:36.829Z,77.00
2023-12-12T04:24:04.624Z,77.10
2023-12-12T04:26:32.481Z,77.20
2023-12-12T04:28:59.834Z,77.30
2023-12-12T04:31:27.525Z,77.20
2023-12-12T04:33:55.501Z,77.20
2023-12-12T04:36:23.169Z,77.10
2023-12-12T04:38:50.683Z,77.80
2023-12-12T04:41:18.406Z,76.90
2023-12-12T04:43:46.064Z,76.80
2023-12-12T04:46:20.751Z,76.70
2023-12-12T04:48:48.248Z,76.60
2023-12-12T04:51:15.935Z,76.60
2023-12-12T04:53:44.075Z,76.60
2023-12-12T04:56:11.812Z,77.30
2023-12-12T04:58:41.058Z,76.60
2023-12-12T05:01:08.900Z,76.50
2023-12-12T05:03:36.733Z,76.50
2023-12-12T05:06:05.378Z,76.50
2023-12-12T05:08:32.750Z,76.40
2023-12-12T05:11:00.237Z,76.60
2023-12-12T05:13:28.050Z,76.70
2023-12-12T05:15:55.696Z,76.80
2023-12-12T05:18:23.420Z,76.80
2023-12-12T05:20:51.928Z,76.90
2023-12-12T05:23:19.772Z,76.80
2023-12-12T05:25:47.454Z,76.80
2023-12-12T05:28:18.104Z,76.90
2023-12-12T05:30:46.018Z,76.90
2023-12-12T05:33:14.166Z,77.10
2023-12-12T05:35:42.136Z,77.10
2023-12-12T05:38:10.099Z,77.10
2023-12-12T05:40:37.820Z,77.20
2023-12-12T05:43:05.932Z,77.20
2023-12-12T05:45:33.878Z,77.20
2023-12-12T05:48:04.315Z,77.20
2023-12-12T05:50:32.183Z,77.20
2023-12-12T05:52:59.804Z,77.20
2023-12-12T05:55:29.496Z,77.20
2023-12-12T05:57:56.946Z,77.20
2023-12-12T06:00:24.410Z,77.10
2023-12-12T06:02:51.944Z,77.00
2023-12-12T06:05:20.265Z,77.00
2023-12-12T06:07:48.129Z,76.90
2023-12-12T06:10:15.892Z,76.90
2023-12-12T06:12:43.318Z,76.80
2023-12-12T06:15:11.009Z,76.70
2023-12-12T06:17:40.080Z,76.70
2023-12-12T06:20:08.558Z,76.80
2023-12-12T06:22:36.978Z,76.70
2023-12-12T06:25:05.042Z,76.70
2023-12-12T06:27:32.805Z,76.80
2023-12-12T06:30:00.492Z,76.80
2023-12-12T06:32:28.220Z,77.00
2023-12-12T06:34:55.812Z,77.20
2023-12-12T06:37:23.339Z,77.30
2023-12-12T06:39:51.035Z,77.40
2023-12-12T06:42:18.741Z,77.50
2023-12-12T06:44:46.281Z,77.60
2023-12-12T06:47:14.008Z,77.60
2023-12-12T06:49:42.914Z,77.70
2023-12-12T06:52:10.854Z,77.60
2023-12-12T06:54:38.553Z,77.70
2023-12-12T06:57:06.186Z,77.50
2023-12-12T06:59:33.667Z,78.30
2023-12-12T07:02:01.155Z,77.50
2023-12-12T07:04:28.934Z,77.50
2023-12-12T07:06:56.583Z,78.30
2023-12-12T07:09:24.091Z,77.50
2023-12-12T07:11:51.735Z,77.60
2023-12-12T07:14:19.390Z,77.40
2023-12-12T07:16:47.172Z,77.20
2023-12-12T07:19:14.605Z,77.10
2023-12-12T07:21:43.596Z,77.20
2023-12-12T07:24:11.856Z,77.00
2023-12-12T07:26:40.048Z,77.00
2023-12-12T07:29:07.592Z,77.60
2023-12-12T07:31:35.341Z,76.80
2023-12-12T07:34:03.086Z,76.70
2023-12-12T07:36:30.650Z,76.60
2023-12-12T07:39:01.422Z,76.60
2023-12-12T07:41:28.873Z,76.40
2023-12-12T07:43:56.525Z,76.30
2023-12-12T07:46:24.795Z,76.40
2023-12-12T07:48:53.052Z,76.50
2023-12-12T07:51:21.074Z,76.50
2023-12-12T07:53:48.616Z,76.50
2023-12-12T07:56:16.133Z,76.60
2023-12-12T07:58:44.241Z,76.70
2023-12-12T08:01:12.399Z,76.90
2023-12-12T08:03:39.971Z,77.00
2023-12-12T08:06:08.819Z,77.10
2023-12-12T08:08:37.640Z,78.10
2023-12-12T08:11:05.545Z,77.50
2023-12-12T08:13:33.403Z,77.50
2023-12-12T08:16:01.069Z,77.60
2023-12-12T08:18:28.750Z,77.70
2023-12-12T08:20:56.154Z,77.70
2023-12-12T08:23:23.510Z,77.80
2023-12-12T08:25:51.140Z,77.80
2023-12-12T08:28:18.883Z,77.80
2023-12-12T08:30:46.363Z,77.70
2023-12-12T08:33:14.121Z,77.80
2023-12-12T08:35:42.431Z,77.80
2023-12-12T08:38:10.136Z,77.80
2023-12-12T08:40:38.014Z,77.90
2023-12-12T08:43:05.554Z,78.00
2023-12-12T08:45:33.888Z,77.90
2023-12-12T08:48:02.211Z,77.80
2023-12-12T08:50:29.812Z,77.80
2023-12-12T08:52:59.008Z,77.50
2023-12-12T08:55:26.713Z,77.20
2023-12-12T08:57:54.704Z,76.90
2023-12-12T09:00:22.854Z,76.60
2023-12-12T09:02:50.467Z,76.50
2023-12-12T09:05:18.845Z,76.40
2023-12-12T09:07:46.626Z,76.50
2023-12-12T09:10:14.508Z,76.60
2023-12-12T09:12:42.266Z,76.70
2023-12-12T09:15:10.722Z,76.70
2023-12-12T09:17:38.760Z,77.50
2023-12-12T09:20:07.706Z,76.60
2023-12-12T09:22:35.864Z,76.40
2023-12-12T09:25:03.706Z,76.30
2023-12-12T09:27:31.844Z,76.30
2023-12-12T09:29:59.861Z,76.00
2023-12-12T09:32:27.782Z,75.70
2023-12-12T09:34:55.776Z,75.30
2023-12-12T09:37:24.703Z,75.20
2023-12-12T09:39:52.564Z,75.20
2023-12-12T09:42:25.024Z,75.40
2023-12-12T09:45:01.741Z,75.40
2023-12-12T09:47:30.677Z,75.20
2023-12-12T09:50:02.448Z,75.30
2023-12-12T09:52:34.062Z,75.60
2023-12-12T09:55:01.719Z,75.60
2023-12-12T09:57:33.952Z,75.50
2023-12-12T10:00:02.314Z,75.60
2023-12-12T10:02:41.163Z,76.00
2023-12-12T10:05:13.676Z,75.60
2023-12-12T10:07:44.227Z,75.40
2023-12-12T10:10:15.857Z,75.30
2023-12-12T10:12:43.402Z,75.30
2023-12-12T10:15:26.600Z,75.30
2023-12-12T10:17:58.925Z,74.80
2023-12-12T10:20:28.901Z,74.60
2023-12-12T10:23:01.734Z,74.20
2023-12-12T10:25:31.386Z,74.10
2023-12-12T10:28:00.212Z,74.00
2023-12-12T10:30:28.354Z,74.00
2023-12-12T10:32:57.795Z,74.10
2023-12-12T10:35:26.886Z,74.00
2023-12-12T10:37:54.624Z,73.80
2023-12-12T10:40:24.874Z,74.00
2023-12-12T10:42:53.056Z,74.00
2023-12-12T10:45:24.515Z,73.90
2023-12-12T10:47:55.748Z,73.90
2023-12-12T10:50:24.412Z,74.20
2023-12-12T10:52:54.041Z,74.40
2023-12-12T10:55:23.308Z,74.60
2023-12-12T10:57:51.121Z,74.70
2023-12-12T11:00:22.044Z,74.70
2023-12-12T11:02:49.957Z,74.70
2023-12-12T11:05:18.666Z,74.60
2023-12-12T11:07:50.137Z,74.50
2023-12-12T11:10:23.040Z,74.60
2023-12-12T11:12:54.480Z,74.40
2023-12-12T11:15:23.470Z,74.30
2023-12-12T11:17:52.272Z,74.20
2023-12-12T11:20:21.315Z,74.20
2023-12-12T11:22:53.118Z,74.20
2023-12-12T11:25:22.616Z,74.10
2023-12-12T11:27:53.655Z,74.00
2023-12-12T11:30:31.922Z,74.00
2023-12-12T11:32:59.974Z,73.70
2023-12-12T11:35:33.517Z,73.60
2023-12-12T11:38:06.977Z,74.50
2023-12-12T11:40:36.956Z,74.10
2023-12-12T11:43:25.671Z,74.00
2023-12-12T11:45:55.759Z,73.60
2023-12-12T11:48:27.912Z,73.80
2023-12-12T11:50:55.857Z,73.50
2023-12-12T11:53:42.499Z,73.50
2023-12-12T11:56:11.381Z,73.40
2023-12-12T11:58:39.348Z,73.80
2023-12-12T12:01:08.781Z,73.80
2023-12-12T12:03:36.530Z,73.80
2023-12-12T12:06:05.657Z,73.60
2023-12-12T12:08:33.962Z,73.60
2023-12-12T12:11:01.718Z,73.80
2023-12-12T12:13:40.404Z,73.90
2023-12-12T12:16:09.920Z,74.10
2023-12-12T12:18:38.987Z,74.30
2023-12-12T12:21:08.693Z,74.30
2023-12-12T12:23:41.622Z,74.30
2023-12-12T12:26:09.477Z,74.40
2023-12-12T12:28:37.942Z,74.40
2023-12-12T12:31:06.834Z,74.20
2023-12-12T12:33:39.574Z,74.30
2023-12-12T12:36:07.688Z,74.50
2023-12-12T12:38:35.713Z,74.40
2023-12-12T12:41:03.373Z,74.20
2023-12-12T12:43:31.301Z,74.30
2023-12-12T12:46:00.000Z,74.30
2023-12-12T12:48:31.330Z,74.60
2023-12-12T12:50:59.319Z,74.60
2023-12-12T12:53:27.270Z,74.90
2023-12-12T12:55:55.827Z,75.10
2023-12-12T12:58:23.731Z,75.30
2023-12-12T13:00:51.388Z,75.50
2023-12-12T13:03:19.019Z,75.20
2023-12-12T13:05:48.001Z,75.00
2023-12-12T13:08:15.279Z,75.10
2023-12-12T13:10:48.003Z,75.10
2023-12-12T13:13:20.261Z,74.70
2023-12-12T13:15:48.260Z,74.70
2023-12-12T13:18:18.529Z,74.60
2023-12-12T13:20:47.334Z,74.70
2023-12-12T13:23:14.871Z,74.80
2023-12-12T13:25:42.515Z,74.70
2023-12-12T13:28:10.132Z,74.60
2023-12-12T13:30:38.112Z,74.60
2023-12-12T13:33:07.625Z,74.40
2023-12-12T13:35:37.670Z,74.30
2023-12-12T13:38:05.947Z,74.70
2023-12-12T13:40:34.040Z,74.80
2023-12-12T13:43:02.231Z,74.80
2023-12-12T13:45:29.954Z,74.70
2023-12-12T13:47:57.514Z,74.50
2023-12-12T13:50:25.225Z,74.40
2023-12-12T13:52:54.113Z,74.30
2023-12-12T13:55:22.999Z,74.30
2023-12-12T13:57:50.741Z,74.40
2023-12-12T14:00:20.522Z,74.40
2023-12-12T14:02:49.584Z,74.40
2023-12-12T14:05:17.636Z,74.40
2023-12-12T14:07:45.600Z,74.60
2023-12-12T14:10:14.198Z,74.70
2023-12-12T14:12:41.944Z,74.70
2023-12-12T14:15:10.581Z,74.90
2023-12-12T14:17:40.896Z,74.90
2023-12-12T14:20:09.409Z,75.00
2023-12-12T14:22:37.743Z,75.00
2023-12-12T14:25:08.779Z,75.10
2023-12-12T14:27:36.145Z,75.10
2023-12-12T14:30:05.419Z,75.10
2023-12-12T14:32:33.405Z,75.10
2023-12-12T14:35:01.295Z,75.00
2023-12-12T14:37:29.486Z,75.10
2023-12-12T14:39:57.128Z,75.10
2023-12-12T14:42:24.765Z,75.10
2023-12-12T14:44:52.327Z,75.30
2023-12-12T14:47:20.381Z,75.40
2023-12-12T14:49:48.375Z,75.40
2023-12-12T14:52:16.105Z,75.60
2023-12-12T14:54:43.869Z,75.60
2023-12-12T14:57:17.314Z,75.80
2023-12-12T14:59:48.652Z,76.00
2023-12-12T15:02:16.328Z,76.00
2023-12-12T15:04:45.343Z,76.00
2023-12-12T15:07:12.909Z,76.10
2023-12-12T15:09:40.663Z,76.00
2023-12-12T15:12:09.143Z,76.10
2023-12-12T15:14:36.941Z,76.20
2023-12-12T15:17:04.689Z,76.40
2023-12-12T15:19:32.419Z,76.30
2023-12-12T15:22:00.017Z,76.50
2023-12-12T15:24:27.892Z,76.70
2023-12-12T15:26:56.706Z,76.90
2023-12-12T15:29:24.944Z,77.00
2023-12-12T15:31:53.221Z,77.10
2023-12-12T15:34:20.699Z,77.10
2023-12-12T15:36:48.146Z,77.20
2023-12-12T15:39:15.690Z,77.20
2023-12-12T15:41:43.212Z,77.30
2023-12-12T15:44:10.642Z,77.40
2023-12-12T15:46:38.279Z,77.40
2023-12-12T15:49:07.428Z,77.60
2023-12-12T15:51:35.097Z,77.60
2023-12-12T15:54:02.705Z,77.60
2023-12-12T15:56:30.288Z,77.70
2023-12-12T15:58:57.964Z,77.70
2023-12-12T16:01:26.820Z,77.70
2023-12-12T16:03:58.974Z,77.60
2023-12-12T16:06:26.904Z,77.70
2023-12-12T16:08:54.643Z,77.70
2023-12-12T16:11:22.663Z,77.70
2023-12-12T16:13:50.387Z,77.80
2023-12-12T16:16:18.292Z,77.80
2023-12-12T16:18:45.761Z,77.80
2023-12-12T16:21:13.528Z,77.80
2023-12-12T16:23:42.200Z,77.80
2023-12-12T16:26:09.994Z,78.00
2023-12-12T16:28:38.582Z,78.50
2023-12-12T16:31:06.503Z,78.60
2023-12-12T16:33:34.264Z,78.60
2023-12-12T16:36:02.291Z,78.70
2023-12-12T16:38:30.104Z,78.60
2023-12-12T16:40:57.609Z,78.50
2023-12-12T16:43:25.583Z,78.50
2023-12-12T16:45:54.153Z,78.20
2023-12-12T16:48:21.789Z,78.20
2023-12-12T16:50:49.577Z,78.30
2023-12-12T16:53:17.239Z,78.30
2023-12-12T16:55:44.689Z,78.30
2023-12-12T16:58:12.179Z,78.40
2023-12-12T17:00:39.858Z,78.60
2023-12-12T17:03:07.623Z,78.50
2023-12-12T17:05:35.494Z,78.60
2023-12-12T17:08:04.120Z,78.60
2023-12-12T17:10:32.638Z,78.60
2023-12-12T17:13:00.384Z,78.70
2023-12-12T17:15:28.406Z,78.60
2023-12-12T17:17:56.367Z,78.80
2023-12-12T17:20:23.999Z,78.90
2023-12-12T17:22:51.580Z,79.00
2023-12-12T17:25:19.163Z,79.30
2023-12-12T17:27:46.820Z,79.40
2023-12-12T17:30:14.986Z,79.70
2023-12-12T17:32:45.340Z,79.80
2023-12-12T17:35:13.427Z,80.00
2023-12-12T17:37:42.449Z,80.20
2023-12-12T17:40:11.619Z,80.20
2023-12-12T17:42:40.277Z,80.40
2023-12-12T17:45:08.485Z,80.70
2023-12-12T17:47:39.362Z,80.70
2023-12-12T17:50:09.192Z,80.80
2023-12-12T17:52:36.985Z,80.80
2023-12-12T17:55:05.891Z,80.70
2023-12-12T17:57:33.622Z,80.90
2023-12-12T18:00:01.226Z,80.80
2023-12-12T18:02:28.922Z,80.80
2023-12-12T18:04:56.823Z,80.80
2023-12-12T18:07:24.399Z,80.80
2023-12-12T18:09:52.072Z,80.90
2023-12-12T18:12:19.698Z,80.80
2023-12-12T18:14:47.330Z,80.80
2023-12-12T18:17:15.013Z,80.90
2023-12-12T18:19:42.394Z,80.90
2023-12-12T18:22:09.878Z,81.00
2023-12-12T18:24:37.175Z,81.20
2023-12-12T18:27:05.139Z,81.20
2023-12-12T18:29:32.568Z,81.30
2023-12-12T18:32:00.470Z,81.20
2023-12-12T18:34:27.859Z,81.20
2023-12-12T18:36:55.551Z,81.20
2023-12-12T18:39:23.756Z,81.90
2023-12-12T18:41:51.157Z,81.10
2023-12-12T18:44:18.722Z,81.10
2023-12-12T18:46:46.609Z,81.10
2023-12-12T18:49:15.384Z,81.10
2023-12-12T18:51:43.376Z,81.10
2023-12-12T18:54:11.362Z,81.10
2023-12-12T18:56:39.381Z,81.10
2023-12-12T18:59:07.044Z,81.20
2023-12-12T19:01:34.557Z,81.10
2023-12-12T19:04:02.372Z,81.10
2023-12-12T19:06:30.339Z,81.10
2023-12-12T19:08:57.789Z,81.10
2023-12-12T19:11:26.894Z,81.10
2023-12-12T19:13:54.398Z,81.00
2023-12-12T19:16:22.909Z,81.00
2023-12-12T19:18:50.546Z,80.90
2023-12-12T19:21:18.331Z,80.90
2023-12-12T19:23:46.056Z,80.90
2023-12-12T19:26:14.206Z,81.60
2023-12-12T19:28:41.957Z,81.00
2023-12-12T19:31:09.743Z,81.00
2023-12-12T19:33:37.396Z,81.10
2023-12-12T19:36:05.705Z,81.00
2023-12-12T19:38:33.373Z,81.00
2023-12-12T19:41:01.250Z,81.90
2023-12-12T19:43:28.698Z,81.30
2023-12-12T19:45:56.598Z,81.30
2023-12-12T19:48:23.910Z,81.40
2023-12-12T19:50:51.602Z,81.50
2023-12-12T19:53:19.136Z,81.60
2023-12-12T19:55:46.838Z,81.50
2023-12-12T19:58:16.762Z,81.50
2023-12-12T20:00:44.520Z,81.60
2023-12-12T20:03:12.280Z,81.60
2023-12-12T20:05:39.821Z,81.60
2023-12-12T20:08:07.679Z,81.60
2023-12-12T20:10:36.762Z,81.60
2023-12-12T20:13:05.452Z,81.50
2023-12-12T20:15:33.416Z,81.50
2023-12-12T20:18:00.938Z,81.50
2023-12-12T20:20:28.390Z,81.50
2023-12-12T20:22:55.984Z,81.40
2023-12-12T20:25:25.681Z,81.50
2023-12-12T20:27:53.492Z,81.30
2023-12-12T20:30:21.382Z,81.30
2023-12-12T20:32:49.173Z,81.40
2023-12-12T20:35:18.660Z,81.40
2023-12-12T20:37:46.935Z,81.40
2023-12-12T20:40:15.076Z,81.40
2023-12-12T20:42:42.739Z,81.40
2023-12-12T20:45:10.449Z,81.40
2023-12-12T20:47:38.156Z,81.40
2023-12-12T20:50:06.406Z,81.50
2023-12-12T20:52:35.168Z,81.50
2023-12-12T20:55:04.022Z,81.60
2023-12-12T20:57:31.728Z,81.70
2023-12-12T20:59:59.237Z,81.70
2023-12-12T21:02:26.552Z,81.70
2023-12-12T21:04:55.228Z,81.80
2023-12-12T21:07:22.882Z,81.90
2023-12-12T21:09:50.336Z,82.00
2023-12-12T21:12:17.947Z,82.00
2023-12-12T21:14:45.369Z,82.00
2023-12-12T21:17:12.776Z,82.10
2023-12-12T21:19:40.672Z,82.20
2023-12-12T21:22:08.699Z,82.20
2023-12-12T21:24:36.326Z,82.30
2023-12-12T21:27:04.703Z,82.50
2023-12-12T21:29:33.136Z,82.60
2023-12-12T21:32:00.591Z,82.50
2023-12-12T21:34:28.295Z,82.50
2023-12-12T21:36:56.013Z,82.40
2023-12-12T21:39:23.648Z,82.40
2023-12-12T21:41:51.537Z,82.40
2023-12-12T21:44:19.203Z,82.40
2023-12-12T21:46:46.754Z,83.10
2023-12-12T21:49:14.576Z,82.30
2023-12-12T21:51:42.167Z,82.40
2023-12-12T21:54:09.972Z,82.30
2023-12-12T21:56:37.737Z,82.30
2023-12-12T21:59:05.591Z,82.30
2023-12-12T22:01:33.203Z,82.30
2023-12-12T22:04:01.088Z,82.30
2023-12-12T22:06:28.520Z,82.30
2023-12-12T22:08:56.065Z,82.30
2023-12-12T22:11:23.769Z,82.20
2023-12-12T22:13:51.253Z,82.20
2023-12-12T22:16:25.525Z,82.20
2023-12-12T22:18:57.717Z,82.20
2023-12-12T22:21:27.969Z,82.10
2023-12-12T22:23:56.150Z,82.00
2023-12-12T22:26:24.684Z,82.00
2023-12-12T22:28:54.876Z,81.90
2023-12-12T22:31:22.554Z,81.90
2023-12-12T22:33:50.394Z,81.80
2023-12-12T22:36:19.643Z,81.80
2023-12-12T22:38:47.979Z,81.80
2023-12-12T22:41:24.997Z,81.80
2023-12-12T22:43:53.251Z,81.80
2023-12-12T22:46:24.916Z,81.90
2023-12-12T22:48:52.724Z,81.80
2023-12-12T22:51:20.528Z,81.80
2023-12-12T22:53:48.192Z,81.80
2023-12-12T22:56:15.878Z,81.80
2023-12-12T22:58:44.092Z,81.80
2023-12-12T23:01:12.132Z,81.80
2023-12-12T23:03:39.949Z,81.80
2023-12-12T23:06:08.297Z,81.80
2023-12-12T23:08:36.358Z,81.80
2023-12-12T23:11:04.181Z,81.70
2023-12-12T23:13:31.654Z,81.70
2023-12-12T23:15:59.376Z,81.80
2023-12-12T23:18:27.127Z,81.80
2023-12-12T23:20:56.540Z,81.80
2023-12-12T23:23:24.633Z,81.80
2023-12-12T23:25:52.346Z,82.50
2023-12-12T23:28:19.798Z,81.80
2023-12-12T23:31:00.475Z,81.80
2023-12-12T23:33:36.616Z,81.80
2023-12-12T23:36:04.382Z,81.80
2023-12-12T23:38:31.629Z,81.90
2023-12-12T23:40:59.414Z,82.70
2023-12-12T23:43:27.273Z,81.90
2023-12-12T23:45:54.723Z,82.00
2023-12-12T23:48:22.160Z,81.90
2023-12-12T23:50:49.868Z,82.00
2023-12-12T23:53:17.376Z,82.10
2023-12-12T23:55:44.672Z,82.10
2023-12-12T23:58:12.453Z,82.10
